createdAt,value
2019-05-12T00:02:48.435Z,8.70
2019-05-12T00:05:52.513Z,8.70
2019-05-12T00:08:57.988Z,8.70
2019-05-12T00:12:02.698Z,8.70
2019-05-12T00:15:08.474Z,8.60
2019-05-12T00:18:13.234Z,8.60
2019-05-12T00:21:18.936Z,8.50
2019-05-12T00:24:23.821Z,8.50
2019-05-12T00:27:28.426Z,8.50
2019-05-12T00:30:40.702Z,8.50
2019-05-12T00:33:44.713Z,8.40
2019-05-12T00:36:50.508Z,8.30
2019-05-12T00:39:53.261Z,8.30
2019-05-12T00:42:57.761Z,8.30
2019-05-12T00:46:04.229Z,8.30
2019-05-12T00:49:08.410Z,8.40
2019-05-12T00:52:11.601Z,8.40
2019-05-12T00:55:15.588Z,8.50
2019-05-12T00:58:21.494Z,8.50
2019-05-12T01:01:24.425Z,8.60
2019-05-12T01:04:30.040Z,8.70
2019-05-12T01:07:34.801Z,8.70
2019-05-12T01:10:42.202Z,8.70
2019-05-12T01:13:45.025Z,8.80
2019-05-12T01:16:49.865Z,8.70
2019-05-12T01:19:55.597Z,8.80
2019-05-12T01:23:00.182Z,8.80
2019-05-12T01:26:08.670Z,8.80
2019-05-12T01:29:12.488Z,8.80
2019-05-12T01:32:31.297Z,8.80
2019-05-12T01:35:38.436Z,8.80
2019-05-12T01:38:41.868Z,8.70
2019-05-12T01:41:44.632Z,8.80
2019-05-12T01:44:48.441Z,8.70
2019-05-12T01:47:51.440Z,8.70
2019-05-12T01:50:57.797Z,8.80
2019-05-12T01:54:10.576Z,8.70
2019-05-12T01:57:04.818Z,8.70
2019-05-12T02:00:09.918Z,8.70
2019-05-12T02:03:13.758Z,8.70
2019-05-12T02:06:22.112Z,8.70
2019-05-12T02:09:29.065Z,8.60
2019-05-12T02:12:31.909Z,8.60
2019-05-12T02:15:38.067Z,8.60
2019-05-12T02:18:42.170Z,8.60
2019-05-12T02:21:44.919Z,8.60
2019-05-12T02:24:47.940Z,8.60
2019-05-12T02:27:52.587Z,8.50
2019-05-12T02:30:58.951Z,8.50
2019-05-12T02:34:05.790Z,8.60
2019-05-12T02:37:15.059Z,8.50
2019-05-12T02:40:18.559Z,8.60
2019-05-12T02:43:24.437Z,8.60
2019-05-12T02:46:28.154Z,8.60
2019-05-12T02:49:31.237Z,8.60
2019-05-12T02:52:39.233Z,8.50
2019-05-12T02:55:45.105Z,8.50
2019-05-12T02:58:54.210Z,8.40
2019-05-12T03:01:57.985Z,8.40
2019-05-12T03:05:05.581Z,8.40
2019-05-12T03:08:09.117Z,8.50
2019-05-12T03:11:14.808Z,8.50
2019-05-12T03:14:17.148Z,8.40
2019-05-12T03:17:25.266Z,8.30
2019-05-12T03:20:31.134Z,8.30
2019-05-12T03:23:35.184Z,8.30
2019-05-12T03:26:39.941Z,8.20
2019-05-12T03:29:44.946Z,8.10
2019-05-12T03:32:49.000Z,8.20
2019-05-12T03:36:00.206Z,8.20
2019-05-12T03:38:57.622Z,8.20
2019-05-12T03:42:05.059Z,8.20
2019-05-12T03:45:09.432Z,8.20
2019-05-12T03:48:14.822Z,8.20
2019-05-12T03:51:19.386Z,8.20
2019-05-12T03:54:24.650Z,8.20
2019-05-12T03:57:29.469Z,8.20
2019-05-12T04:00:35.755Z,8.20
2019-05-12T04:03:44.783Z,8.20
2019-05-12T04:06:48.155Z,8.20
2019-05-12T04:09:54.693Z,8.30
2019-05-12T04:12:57.713Z,8.30
2019-05-12T04:16:05.239Z,8.30
2019-05-12T04:19:09.207Z,8.30
2019-05-12T04:22:15.132Z,8.40
2019-05-12T04:25:18.037Z,8.40
2019-05-12T04:28:24.329Z,8.50
2019-05-12T04:31:26.702Z,8.50
2019-05-12T04:34:29.450Z,8.60
2019-05-12T04:37:35.459Z,8.60
2019-05-12T04:40:39.284Z,8.60
2019-05-12T04:43:44.717Z,8.70
2019-05-12T04:46:49.025Z,8.70
2019-05-12T04:49:54.673Z,8.70
2019-05-12T04:52:59.213Z,8.70
2019-05-12T04:56:14.670Z,8.70
2019-05-12T04:59:15.293Z,8.80
2019-05-12T05:02:16.573Z,8.90
2019-05-12T05:05:19.316Z,8.90
2019-05-12T05:08:24.925Z,8.80
2019-05-12T05:11:28.892Z,8.90
2019-05-12T05:14:34.005Z,8.90
2019-05-12T05:17:40.478Z,8.90
2019-05-12T05:20:46.369Z,9.00
2019-05-12T05:23:54.074Z,9.10
2019-05-12T05:26:57.893Z,9.10
2019-05-12T05:30:04.084Z,9.20
2019-05-12T05:33:09.932Z,9.10
2019-05-12T05:36:19.627Z,9.20
2019-05-12T05:39:20.666Z,9.10
2019-05-12T05:42:28.432Z,9.10
2019-05-12T05:45:31.094Z,9.20
2019-05-12T05:48:35.205Z,9.20
2019-05-12T05:51:44.410Z,9.30
2019-05-12T05:54:44.050Z,9.40
2019-05-12T05:57:53.329Z,9.50
2019-05-12T06:01:02.997Z,9.60
2019-05-12T06:04:04.326Z,9.60
2019-05-12T06:07:08.516Z,9.70
2019-05-12T06:10:14.488Z,9.80
2019-05-12T06:13:21.229Z,10.00
2019-05-12T06:16:25.581Z,10.10
2019-05-12T06:19:29.374Z,10.20
2019-05-12T06:22:34.424Z,10.30
2019-05-12T06:25:47.435Z,10.50
2019-05-12T06:28:46.652Z,10.60
2019-05-12T06:31:51.328Z,10.80
2019-05-12T06:35:01.480Z,11.10
2019-05-12T06:38:05.094Z,11.30
2019-05-12T06:41:14.272Z,11.80
2019-05-12T06:44:19.587Z,12.20
2019-05-12T06:47:24.343Z,12.30
2019-05-12T06:50:28.563Z,12.30
2019-05-12T06:53:33.752Z,12.50
2019-05-12T06:56:38.124Z,12.60
2019-05-12T06:59:50.709Z,13.10
2019-05-12T07:02:54.744Z,13.30
2019-05-12T07:05:57.467Z,13.50
2019-05-12T07:09:08.551Z,14.00
2019-05-12T07:12:07.354Z,14.30
2019-05-12T07:15:11.227Z,14.50
2019-05-12T07:18:17.817Z,14.80
2019-05-12T07:21:24.835Z,14.40
2019-05-12T07:24:29.228Z,13.60
2019-05-12T07:27:39.367Z,13.00
2019-05-12T07:30:44.126Z,13.40
2019-05-12T07:33:48.555Z,14.30
2019-05-12T07:36:54.643Z,14.70
2019-05-12T07:39:59.556Z,14.90
2019-05-12T07:47:59.472Z,15.00
2019-05-12T07:51:05.320Z,15.40
2019-05-12T07:54:08.103Z,16.00
2019-05-12T07:57:17.275Z,16.40
2019-05-12T08:00:22.827Z,16.50
2019-05-12T08:03:28.428Z,16.90
2019-05-12T08:06:34.724Z,16.20
2019-05-12T08:09:39.572Z,17.00
2019-05-12T08:12:46.170Z,17.00
2019-05-12T08:15:53.327Z,16.80
2019-05-12T08:18:56.832Z,18.00
2019-05-12T08:22:04.251Z,18.70
2019-05-12T08:25:10.409Z,18.20
2019-05-12T08:28:18.230Z,18.30
2019-05-12T08:31:23.558Z,19.40
2019-05-12T08:34:26.777Z,20.20
2019-05-12T08:37:29.849Z,21.00
2019-05-12T08:40:34.193Z,21.00
2019-05-12T08:43:40.446Z,20.70
2019-05-12T08:46:51.999Z,20.10
2019-05-12T08:49:58.335Z,20.50
2019-05-12T08:52:57.486Z,21.40
2019-05-12T08:56:05.006Z,21.20
2019-05-12T08:59:09.774Z,21.90
2019-05-12T09:02:13.987Z,22.60
2019-05-12T09:05:18.017Z,22.80
2019-05-12T09:08:24.292Z,21.70
2019-05-12T09:11:28.407Z,22.50
2019-05-12T09:14:35.537Z,23.00
2019-05-12T09:17:49.110Z,23.20
2019-05-12T09:20:48.914Z,22.90
2019-05-12T09:23:49.184Z,23.20
2019-05-12T09:26:59.132Z,23.30
2019-05-12T09:30:08.025Z,21.70
2019-05-12T09:33:06.393Z,19.90
2019-05-12T09:36:11.422Z,20.60
2019-05-12T09:39:16.785Z,21.60
2019-05-12T09:42:24.566Z,21.70
2019-05-12T09:45:25.385Z,21.60
2019-05-12T09:48:28.393Z,21.40
2019-05-12T09:51:41.025Z,21.20
2019-05-12T09:54:40.822Z,20.90
2019-05-12T09:57:45.267Z,21.30
2019-05-12T10:00:48.153Z,22.50
2019-05-12T10:03:54.348Z,23.30
2019-05-12T10:06:58.560Z,23.70
2019-05-12T10:10:03.689Z,23.60
2019-05-12T10:13:09.977Z,23.60
2019-05-12T10:16:13.466Z,24.00
2019-05-12T10:19:23.397Z,23.40
2019-05-12T10:22:40.586Z,23.40
2019-05-12T10:25:47.057Z,23.50
2019-05-12T10:28:58.062Z,24.60
2019-05-12T10:31:57.718Z,24.80
2019-05-12T10:35:04.116Z,25.70
2019-05-12T10:38:10.935Z,26.20
2019-05-12T10:41:19.521Z,26.40
2019-05-12T10:44:29.738Z,25.60
2019-05-12T10:47:34.237Z,24.90
2019-05-12T10:50:37.796Z,23.20
2019-05-12T10:53:43.271Z,22.90
2019-05-12T10:56:46.531Z,24.80
2019-05-12T10:59:50.549Z,25.30
2019-05-12T11:02:53.540Z,23.40
2019-05-12T11:06:02.745Z,24.30
2019-05-12T11:09:06.330Z,24.60
2019-05-12T11:12:13.647Z,24.20
2019-05-12T11:15:16.648Z,24.70
2019-05-12T11:18:28.135Z,24.30
2019-05-12T11:21:25.980Z,25.60
2019-05-12T11:24:29.945Z,24.20
2019-05-12T11:27:34.510Z,25.30
2019-05-12T11:30:38.636Z,25.90
2019-05-12T11:33:43.600Z,26.10
2019-05-12T11:36:47.452Z,26.40
2019-05-12T11:39:53.528Z,26.40
2019-05-12T11:43:01.067Z,26.30
2019-05-12T11:46:02.045Z,26.40
2019-05-12T11:49:05.882Z,26.30
2019-05-12T11:52:15.416Z,25.90
2019-05-12T11:55:14.521Z,25.10
2019-05-12T11:58:19.381Z,25.40
2019-05-12T12:01:24.377Z,26.30
2019-05-12T12:04:45.699Z,27.50
2019-05-12T12:07:52.652Z,28.50
2019-05-12T12:10:56.097Z,28.70
2019-05-12T12:14:06.414Z,29.20
2019-05-12T12:17:06.457Z,27.80
2019-05-12T12:20:15.381Z,27.50
2019-05-12T12:23:14.219Z,27.30
2019-05-12T12:26:26.137Z,27.90
2019-05-12T12:29:31.126Z,28.00
2019-05-12T12:32:33.992Z,28.00
2019-05-12T12:35:37.861Z,27.90
2019-05-12T12:38:40.681Z,28.10
2019-05-12T12:41:55.301Z,28.60
2019-05-12T12:44:53.606Z,28.30
2019-05-12T12:47:58.245Z,28.80
2019-05-12T12:51:03.938Z,28.30
2019-05-12T12:54:09.700Z,28.20
2019-05-12T12:57:15.253Z,28.60
2019-05-12T13:00:29.720Z,28.80
2019-05-12T13:03:29.869Z,29.40
2019-05-12T13:06:34.623Z,29.10
2019-05-12T13:09:44.094Z,28.70
2019-05-12T13:12:50.303Z,29.50
2019-05-12T13:15:54.235Z,29.50
2019-05-12T13:19:03.074Z,29.30
2019-05-12T13:22:03.732Z,29.10
2019-05-12T13:25:08.844Z,29.80
2019-05-12T13:28:18.420Z,30.10
2019-05-12T13:31:18.488Z,31.10
2019-05-12T13:34:23.789Z,30.40
2019-05-12T13:37:28.785Z,29.40
2019-05-12T13:40:35.906Z,29.60
2019-05-12T13:43:39.037Z,30.30
2019-05-12T13:46:48.708Z,27.90
2019-05-12T13:49:51.059Z,28.50
2019-05-12T13:53:01.305Z,27.60
2019-05-12T13:56:04.833Z,28.50
2019-05-12T13:59:12.072Z,29.30
2019-05-12T14:02:22.001Z,29.70
2019-05-12T14:05:20.238Z,29.90
2019-05-12T14:08:24.333Z,29.40
2019-05-12T14:11:29.117Z,28.90
2019-05-12T14:14:34.075Z,28.70
2019-05-12T14:17:43.276Z,29.00
2019-05-12T14:20:50.780Z,29.80
2019-05-12T14:23:53.158Z,29.60
2019-05-12T14:27:04.194Z,28.40
2019-05-12T14:30:10.252Z,26.40
2019-05-12T14:33:14.664Z,25.30
2019-05-12T14:36:22.073Z,25.40
2019-05-12T14:39:27.025Z,25.50
2019-05-12T14:42:34.751Z,27.30
2019-05-12T14:45:36.721Z,27.00
2019-05-12T14:48:48.413Z,27.00
2019-05-12T14:51:48.868Z,27.40
2019-05-12T14:54:54.066Z,26.90
2019-05-12T14:57:57.376Z,24.60
2019-05-12T15:01:00.241Z,23.20
2019-05-12T15:04:05.195Z,24.10
2019-05-12T15:07:11.865Z,23.80
2019-05-12T15:10:18.661Z,23.40
2019-05-12T15:13:23.827Z,25.00
2019-05-12T15:16:26.449Z,26.30
2019-05-12T15:19:33.419Z,27.40
2019-05-12T15:22:42.933Z,27.40
2019-05-12T15:25:43.932Z,27.00
2019-05-12T15:28:49.909Z,24.70
2019-05-12T15:31:56.550Z,24.60
2019-05-12T15:34:57.518Z,25.70
2019-05-12T15:38:03.821Z,26.10
2019-05-12T15:41:10.774Z,26.50
2019-05-12T15:44:14.504Z,25.60
2019-05-12T15:47:19.007Z,25.50
2019-05-12T15:50:26.176Z,24.70
2019-05-12T15:53:33.467Z,24.70
2019-05-12T15:56:37.985Z,25.20
2019-05-12T15:59:40.759Z,24.60
2019-05-12T16:02:44.312Z,24.60
2019-05-12T16:05:50.437Z,24.80
2019-05-12T16:08:54.324Z,24.30
2019-05-12T16:11:57.270Z,24.20
2019-05-12T16:15:01.130Z,23.50
2019-05-12T16:18:09.878Z,23.70
2019-05-12T16:21:14.275Z,23.80
2019-05-12T16:24:23.503Z,23.30
2019-05-12T16:27:33.220Z,23.00
2019-05-12T16:30:33.933Z,22.80
2019-05-12T16:33:37.785Z,22.20
2019-05-12T16:36:41.183Z,21.70
2019-05-12T16:39:47.532Z,21.90
2019-05-12T16:42:53.600Z,22.30
2019-05-12T16:45:55.116Z,22.00
2019-05-12T16:48:59.766Z,21.90
2019-05-12T16:52:05.617Z,21.70
2019-05-12T16:55:08.741Z,21.30
2019-05-12T16:58:13.425Z,21.50
2019-05-12T17:01:19.378Z,21.80
2019-05-12T17:04:25.677Z,21.20
2019-05-12T17:07:31.329Z,20.60
2019-05-12T17:10:36.924Z,20.30
2019-05-12T17:13:40.763Z,20.30
2019-05-12T17:16:46.618Z,20.30
2019-05-12T17:19:49.862Z,19.70
2019-05-12T17:22:56.924Z,19.90
2019-05-12T17:25:58.495Z,19.80
2019-05-12T17:29:01.755Z,19.40
2019-05-12T17:32:04.752Z,19.10
2019-05-12T17:35:10.212Z,18.80
2019-05-12T17:38:19.931Z,18.80
2019-05-12T17:41:23.523Z,18.60
2019-05-12T17:44:26.124Z,18.40
2019-05-12T17:47:31.893Z,18.20
2019-05-12T17:50:40.593Z,17.80
2019-05-12T17:53:44.857Z,17.00
2019-05-12T17:56:50.706Z,16.20
2019-05-12T17:59:59.814Z,15.60
2019-05-12T18:03:15.691Z,15.10
2019-05-12T18:06:06.826Z,14.70
2019-05-12T18:09:18.199Z,14.60
2019-05-12T18:12:19.313Z,14.30
2019-05-12T18:15:32.253Z,14.20
2019-05-12T18:18:32.578Z,14.00
2019-05-12T18:21:34.137Z,13.90
2019-05-12T18:24:40.934Z,13.90
2019-05-12T18:27:48.893Z,13.70
2019-05-12T18:30:49.548Z,13.60
2019-05-12T18:33:56.701Z,13.50
2019-05-12T18:37:00.156Z,13.40
2019-05-12T18:40:05.009Z,13.20
2019-05-12T18:43:10.624Z,13.10
2019-05-12T18:46:16.490Z,13.00
2019-05-12T18:49:19.345Z,12.80
2019-05-12T18:52:23.790Z,12.80
2019-05-12T18:55:35.775Z,12.60
2019-05-12T18:58:36.112Z,12.60
2019-05-12T19:01:39.393Z,12.40
2019-05-12T19:04:45.553Z,12.30
2019-05-12T19:07:50.244Z,12.30
2019-05-12T19:10:54.258Z,12.20
2019-05-12T19:13:59.965Z,12.00
2019-05-12T19:17:03.556Z,12.00
2019-05-12T19:20:07.916Z,11.90
2019-05-12T19:23:14.228Z,11.80
2019-05-12T19:26:20.692Z,11.70
2019-05-12T19:29:29.662Z,11.50
2019-05-12T19:32:33.579Z,11.50
2019-05-12T19:35:38.856Z,11.30
2019-05-12T19:38:45.569Z,11.10
2019-05-12T19:41:50.022Z,11.00
2019-05-12T19:44:59.691Z,10.90
2019-05-12T19:48:04.093Z,10.70
2019-05-12T19:51:20.957Z,10.60
2019-05-12T19:54:24.174Z,10.50
2019-05-12T19:57:26.262Z,10.40
2019-05-12T20:00:33.571Z,10.20
2019-05-12T20:03:37.814Z,10.10
2019-05-12T20:06:40.602Z,10.00
2019-05-12T20:09:48.379Z,9.90
2019-05-12T20:12:54.734Z,9.80
2019-05-12T20:15:55.937Z,9.70
2019-05-12T20:18:59.948Z,9.70
2019-05-12T20:22:03.502Z,9.60
2019-05-12T20:25:09.828Z,9.50
2019-05-12T20:28:14.552Z,9.50
2019-05-12T20:31:19.310Z,9.30
2019-05-12T20:34:24.625Z,9.20
2019-05-12T20:37:28.660Z,9.00
2019-05-12T20:40:37.532Z,8.80
2019-05-12T20:43:41.260Z,8.70
2019-05-12T20:46:44.165Z,8.60
2019-05-12T20:49:51.115Z,8.50
2019-05-12T20:52:59.065Z,8.50
2019-05-12T20:56:03.528Z,8.40
2019-05-12T20:59:08.200Z,8.40
2019-05-12T21:02:14.102Z,8.20
2019-05-12T21:05:20.119Z,8.20
2019-05-12T21:08:25.533Z,8.10
2019-05-12T21:11:28.383Z,8.00
2019-05-12T21:14:35.066Z,7.90
2019-05-12T21:17:44.112Z,7.70
2019-05-12T21:20:52.299Z,7.60
2019-05-12T21:23:59.345Z,7.60
2019-05-12T21:27:00.287Z,7.60
2019-05-12T21:30:09.959Z,7.60
2019-05-12T21:33:08.327Z,7.50
2019-05-12T21:36:17.479Z,7.30
2019-05-12T21:39:24.086Z,7.10
2019-05-12T21:42:28.417Z,6.90
2019-05-12T21:45:34.003Z,6.80
2019-05-12T21:48:39.661Z,6.60
2019-05-12T21:51:44.628Z,6.40
2019-05-12T21:54:51.641Z,6.20
2019-05-12T21:58:01.510Z,6.00
2019-05-12T22:01:05.164Z,5.80
2019-05-12T22:04:07.525Z,5.70
2019-05-12T22:07:11.140Z,5.50
2019-05-12T22:10:25.589Z,5.30
2019-05-12T22:13:22.758Z,5.30
2019-05-12T22:16:29.636Z,5.20
2019-05-12T22:19:37.696Z,5.20
2019-05-12T22:22:40.036Z,5.10
2019-05-12T22:25:49.030Z,5.10
2019-05-12T22:28:53.721Z,5.00
2019-05-12T22:31:58.331Z,5.00
2019-05-12T22:35:04.810Z,5.00
2019-05-12T22:38:15.795Z,4.90
2019-05-12T22:41:16.250Z,4.80
2019-05-12T22:44:22.827Z,4.80
2019-05-12T22:47:27.616Z,4.70
2019-05-12T22:50:33.143Z,4.70
2019-05-12T22:53:38.132Z,4.60
2019-05-12T22:56:44.170Z,4.60
2019-05-12T22:59:53.091Z,4.50
2019-05-12T23:03:00.452Z,4.40
2019-05-12T23:06:20.258Z,4.30
2019-05-12T23:09:12.880Z,4.20
2019-05-12T23:12:20.103Z,4.20
2019-05-12T23:15:24.311Z,4.10
2019-05-12T23:18:30.934Z,4.10
2019-05-12T23:21:35.709Z,4.00
2019-05-12T23:24:40.784Z,4.00
2019-05-12T23:27:44.284Z,3.90
2019-05-12T23:30:50.226Z,3.80
2019-05-12T23:33:56.190Z,3.90
2019-05-12T23:37:03.636Z,4.10
2019-05-12T23:40:11.396Z,4.40
2019-05-12T23:43:15.828Z,4.80
2019-05-12T23:46:18.809Z,5.10
2019-05-12T23:49:24.430Z,5.40
2019-05-12T23:52:28.248Z,5.50
2019-05-12T23:55:34.678Z,5.40
2019-05-12T23:58:36.853Z,5.30
